sensor_id;sensor_type;location;lat;lon;timestamp;temperature;humidity
16404;DHT22;8311;50.158;8.642;2024-01-30T00:01:07;23.50;50.60
16404;DHT22;8311;50.158;8.642;2024-01-30T00:04:01;23.50;50.60
16404;DHT22;8311;50.158;8.642;2024-01-30T00:06:55;23.50;50.50
16404;DHT22;8311;50.158;8.642;2024-01-30T00:09:49;23.50;50.60
16404;DHT22;8311;50.158;8.642;2024-01-30T00:12:42;23.60;50.70
16404;DHT22;8311;50.158;8.642;2024-01-30T00:15:36;23.50;50.60
16404;DHT22;8311;50.158;8.642;2024-01-30T00:18:29;23.60;50.60
16404;DHT22;8311;50.158;8.642;2024-01-30T00:21:25;23.60;50.60
16404;DHT22;8311;50.158;8.642;2024-01-30T00:24:18;23.60;50.70
16404;DHT22;8311;50.158;8.642;2024-01-30T00:27:11;23.60;50.60
16404;DHT22;8311;50.158;8.642;2024-01-30T00:30:05;23.60;50.60
16404;DHT22;8311;50.158;8.642;2024-01-30T00:32:58;23.60;50.60
16404;DHT22;8311;50.158;8.642;2024-01-30T00:35:51;23.60;50.60
16404;DHT22;8311;50.158;8.642;2024-01-30T00:38:46;23.60;50.50
16404;DHT22;8311;50.158;8.642;2024-01-30T00:41:39;23.60;50.60
16404;DHT22;8311;50.158;8.642;2024-01-30T00:44:34;23.60;50.50
16404;DHT22;8311;50.158;8.642;2024-01-30T00:47:29;23.60;50.50
16404;DHT22;8311;50.158;8.642;2024-01-30T00:50:25;23.70;50.60
16404;DHT22;8311;50.158;8.642;2024-01-30T00:53:18;23.70;50.70
16404;DHT22;8311;50.158;8.642;2024-01-30T00:59:57;23.70;50.70
16404;DHT22;8311;50.158;8.642;2024-01-30T01:02:50;23.70;50.70
16404;DHT22;8311;50.158;8.642;2024-01-30T01:05:43;23.70;50.70
16404;DHT22;8311;50.158;8.642;2024-01-30T01:08:36;23.70;50.70
16404;DHT22;8311;50.158;8.642;2024-01-30T01:11:29;23.70;50.60
16404;DHT22;8311;50.158;8.642;2024-01-30T01:14:23;23.70;50.70
16404;DHT22;8311;50.158;8.642;2024-01-30T01:17:17;23.60;50.60
16404;DHT22;8311;50.158;8.642;2024-01-30T01:20:11;23.70;50.70
16404;DHT22;8311;50.158;8.642;2024-01-30T01:23:05;23.70;50.70
16404;DHT22;8311;50.158;8.642;2024-01-30T01:25:58;23.70;50.70
16404;DHT22;8311;50.158;8.642;2024-01-30T01:28:52;23.70;50.70
16404;DHT22;8311;50.158;8.642;2024-01-30T01:31:45;23.70;50.70
16404;DHT22;8311;50.158;8.642;2024-01-30T01:34:39;23.80;50.80
16404;DHT22;8311;50.158;8.642;2024-01-30T01:37:33;23.80;50.80
16404;DHT22;8311;50.158;8.642;2024-01-30T01:40:27;23.70;50.70
16404;DHT22;8311;50.158;8.642;2024-01-30T01:43:20;23.80;50.80
16404;DHT22;8311;50.158;8.642;2024-01-30T01:46:38;23.80;50.70
16404;DHT22;8311;50.158;8.642;2024-01-30T01:49:31;23.80;50.70
16404;DHT22;8311;50.158;8.642;2024-01-30T01:52:25;23.80;50.70
16404;DHT22;8311;50.158;8.642;2024-01-30T01:55:21;23.80;50.70
16404;DHT22;8311;50.158;8.642;2024-01-30T01:58:16;23.80;50.70
16404;DHT22;8311;50.158;8.642;2024-01-30T02:01:11;23.70;50.70
16404;DHT22;8311;50.158;8.642;2024-01-30T02:04:06;23.80;50.80
16404;DHT22;8311;50.158;8.642;2024-01-30T02:06:59;23.80;50.80
16404;DHT22;8311;50.158;8.642;2024-01-30T02:09:54;23.70;50.70
16404;DHT22;8311;50.158;8.642;2024-01-30T02:12:48;23.70;50.70
16404;DHT22;8311;50.158;8.642;2024-01-30T02:15:41;23.80;50.80
16404;DHT22;8311;50.158;8.642;2024-01-30T02:18:34;23.80;50.70
16404;DHT22;8311;50.158;8.642;2024-01-30T02:25:13;23.80;50.70
16404;DHT22;8311;50.158;8.642;2024-01-30T02:28:06;23.80;50.80
16404;DHT22;8311;50.158;8.642;2024-01-30T02:30:59;23.80;50.70
16404;DHT22;8311;50.158;8.642;2024-01-30T02:33:52;23.80;50.80
16404;DHT22;8311;50.158;8.642;2024-01-30T02:36:46;23.80;50.80
16404;DHT22;8311;50.158;8.642;2024-01-30T02:39:38;23.80;50.80
16404;DHT22;8311;50.158;8.642;2024-01-30T02:42:33;23.80;50.90
16404;DHT22;8311;50.158;8.642;2024-01-30T02:45:26;23.80;50.80
16404;DHT22;8311;50.158;8.642;2024-01-30T02:48:19;23.80;50.80
16404;DHT22;8311;50.158;8.642;2024-01-30T02:51:12;23.80;50.80
16404;DHT22;8311;50.158;8.642;2024-01-30T02:54:05;23.80;51.00
16404;DHT22;8311;50.158;8.642;2024-01-30T02:56:58;23.80;50.90
16404;DHT22;8311;50.158;8.642;2024-01-30T02:59:53;23.80;50.90
16404;DHT22;8311;50.158;8.642;2024-01-30T03:02:46;23.80;51.00
16404;DHT22;8311;50.158;8.642;2024-01-30T03:05:39;23.90;51.00
16404;DHT22;8311;50.158;8.642;2024-01-30T03:08:32;23.80;51.00
16404;DHT22;8311;50.158;8.642;2024-01-30T03:11:26;23.80;51.00
16404;DHT22;8311;50.158;8.642;2024-01-30T03:14:19;23.90;51.00
16404;DHT22;8311;50.158;8.642;2024-01-30T03:17:14;23.90;51.00
16404;DHT22;8311;50.158;8.642;2024-01-30T03:20:07;23.80;51.00
16404;DHT22;8311;50.158;8.642;2024-01-30T03:23:01;23.80;51.00
16404;DHT22;8311;50.158;8.642;2024-01-30T03:25:54;23.80;51.10
16404;DHT22;8311;50.158;8.642;2024-01-30T03:28:47;23.80;51.00
16404;DHT22;8311;50.158;8.642;2024-01-30T03:31:40;23.80;51.00
16404;DHT22;8311;50.158;8.642;2024-01-30T03:34:34;23.80;51.10
16404;DHT22;8311;50.158;8.642;2024-01-30T03:37:27;23.80;51.00
16404;DHT22;8311;50.158;8.642;2024-01-30T03:40:20;23.80;51.00
16404;DHT22;8311;50.158;8.642;2024-01-30T03:43:13;23.80;51.00
16404;DHT22;8311;50.158;8.642;2024-01-30T03:46:06;23.80;51.00
16404;DHT22;8311;50.158;8.642;2024-01-30T03:49:00;23.80;51.00
16404;DHT22;8311;50.158;8.642;2024-01-30T03:51:54;23.80;51.00
16404;DHT22;8311;50.158;8.642;2024-01-30T03:55:12;23.80;51.00
16404;DHT22;8311;50.158;8.642;2024-01-30T03:58:05;23.80;50.90
16404;DHT22;8311;50.158;8.642;2024-01-30T04:00:58;23.80;51.00
16404;DHT22;8311;50.158;8.642;2024-01-30T04:03:52;23.80;51.00
16404;DHT22;8311;50.158;8.642;2024-01-30T04:06:46;23.80;51.00
16404;DHT22;8311;50.158;8.642;2024-01-30T04:09:40;23.80;51.00
16404;DHT22;8311;50.158;8.642;2024-01-30T04:12:35;23.80;51.00
16404;DHT22;8311;50.158;8.642;2024-01-30T04:15:28;23.80;51.00
16404;DHT22;8311;50.158;8.642;2024-01-30T04:18:21;23.80;51.10
16404;DHT22;8311;50.158;8.642;2024-01-30T04:21:14;23.80;51.10
16404;DHT22;8311;50.158;8.642;2024-01-30T04:24:08;23.80;51.10
16404;DHT22;8311;50.158;8.642;2024-01-30T04:27:03;23.80;51.10
16404;DHT22;8311;50.158;8.642;2024-01-30T04:29:56;23.80;51.10
16404;DHT22;8311;50.158;8.642;2024-01-30T04:32:49;23.80;51.10
16404;DHT22;8311;50.158;8.642;2024-01-30T04:35:42;23.80;51.10
16404;DHT22;8311;50.158;8.642;2024-01-30T04:38:36;23.80;51.10
16404;DHT22;8311;50.158;8.642;2024-01-30T04:41:28;23.90;51.20
16404;DHT22;8311;50.158;8.642;2024-01-30T04:44:25;23.80;51.10
16404;DHT22;8311;50.158;8.642;2024-01-30T04:47:17;23.80;51.10
16404;DHT22;8311;50.158;8.642;2024-01-30T04:50:10;23.80;51.10
16404;DHT22;8311;50.158;8.642;2024-01-30T04:53:03;23.80;51.10
16404;DHT22;8311;50.158;8.642;2024-01-30T04:59:43;23.90;51.10
16404;DHT22;8311;50.158;8.642;2024-01-30T05:02:36;23.90;51.10
16404;DHT22;8311;50.158;8.642;2024-01-30T05:05:30;23.90;51.10
16404;DHT22;8311;50.158;8.642;2024-01-30T05:08:22;23.90;51.10
16404;DHT22;8311;50.158;8.642;2024-01-30T05:11:15;23.90;51.10
16404;DHT22;8311;50.158;8.642;2024-01-30T05:14:09;23.90;51.10
16404;DHT22;8311;50.158;8.642;2024-01-30T05:17:04;23.90;51.10
16404;DHT22;8311;50.158;8.642;2024-01-30T05:19:57;23.90;51.10
16404;DHT22;8311;50.158;8.642;2024-01-30T05:22:51;23.90;51.00
16404;DHT22;8311;50.158;8.642;2024-01-30T05:25:44;23.90;51.10
16404;DHT22;8311;50.158;8.642;2024-01-30T05:28:37;23.90;51.00
16404;DHT22;8311;50.158;8.642;2024-01-30T05:31:31;23.90;51.00
16404;DHT22;8311;50.158;8.642;2024-01-30T05:34:24;23.90;51.00
16404;DHT22;8311;50.158;8.642;2024-01-30T05:37:17;23.90;51.10
16404;DHT22;8311;50.158;8.642;2024-01-30T05:40:11;23.90;51.10
16404;DHT22;8311;50.158;8.642;2024-01-30T05:43:04;23.90;51.10
16404;DHT22;8311;50.158;8.642;2024-01-30T05:45:57;23.90;51.10
16404;DHT22;8311;50.158;8.642;2024-01-30T05:48:50;23.90;51.20
16404;DHT22;8311;50.158;8.642;2024-01-30T05:51:45;23.90;51.30
16404;DHT22;8311;50.158;8.642;2024-01-30T05:54:38;23.90;51.40
16404;DHT22;8311;50.158;8.642;2024-01-30T06:01:16;23.90;51.40
16404;DHT22;8311;50.158;8.642;2024-01-30T06:04:08;23.90;51.40
16404;DHT22;8311;50.158;8.642;2024-01-30T06:07:03;23.90;51.50
16404;DHT22;8311;50.158;8.642;2024-01-30T06:09:57;23.90;51.70
16404;DHT22;8311;50.158;8.642;2024-01-30T06:12:53;23.90;50.00
16404;DHT22;8311;50.158;8.642;2024-01-30T06:15:46;23.90;48.90
16404;DHT22;8311;50.158;8.642;2024-01-30T06:18:39;23.80;48.70
16404;DHT22;8311;50.158;8.642;2024-01-30T06:21:31;23.90;49.10
16404;DHT22;8311;50.158;8.642;2024-01-30T06:24:30;23.90;49.30
16404;DHT22;8311;50.158;8.642;2024-01-30T06:27:22;23.90;49.70
16404;DHT22;8311;50.158;8.642;2024-01-30T06:30:16;23.90;49.80
16404;DHT22;8311;50.158;8.642;2024-01-30T06:33:08;23.90;49.90
16404;DHT22;8311;50.158;8.642;2024-01-30T06:36:02;23.90;50.20
16404;DHT22;8311;50.158;8.642;2024-01-30T06:38:55;23.90;50.50
16404;DHT22;8311;50.158;8.642;2024-01-30T06:41:50;23.90;50.50
16404;DHT22;8311;50.158;8.642;2024-01-30T06:44:44;23.90;50.60
16404;DHT22;8311;50.158;8.642;2024-01-30T06:51:20;23.80;48.30
16404;DHT22;8311;50.158;8.642;2024-01-30T06:54:13;23.80;45.80
16404;DHT22;8311;50.158;8.642;2024-01-30T06:57:08;23.70;43.70
16404;DHT22;8311;50.158;8.642;2024-01-30T07:00:04;23.60;42.60
16404;DHT22;8311;50.158;8.642;2024-01-30T07:06:42;23.50;41.80
16404;DHT22;8311;50.158;8.642;2024-01-30T07:09:35;23.50;41.60
16404;DHT22;8311;50.158;8.642;2024-01-30T07:12:32;23.40;41.50
16404;DHT22;8311;50.158;8.642;2024-01-30T07:15:24;23.30;41.40
16404;DHT22;8311;50.158;8.642;2024-01-30T07:18:19;23.30;41.40
16404;DHT22;8311;50.158;8.642;2024-01-30T07:21:11;23.30;41.70
16404;DHT22;8311;50.158;8.642;2024-01-30T07:27:50;23.20;41.40
16404;DHT22;8311;50.158;8.642;2024-01-30T07:30:44;23.10;43.10
16404;DHT22;8311;50.158;8.642;2024-01-30T07:33:38;23.10;43.70
16404;DHT22;8311;50.158;8.642;2024-01-30T07:36:31;23.00;44.40
16404;DHT22;8311;50.158;8.642;2024-01-30T07:39:23;23.00;45.00
16404;DHT22;8311;50.158;8.642;2024-01-30T07:42:17;23.00;45.30
16404;DHT22;8311;50.158;8.642;2024-01-30T07:45:12;23.00;45.20
16404;DHT22;8311;50.158;8.642;2024-01-30T07:48:06;22.90;45.20
16404;DHT22;8311;50.158;8.642;2024-01-30T07:50:59;22.80;45.30
16404;DHT22;8311;50.158;8.642;2024-01-30T07:53:54;22.80;45.20
16404;DHT22;8311;50.158;8.642;2024-01-30T07:56:49;22.80;45.10
16404;DHT22;8311;50.158;8.642;2024-01-30T07:59:42;22.70;45.20
16404;DHT22;8311;50.158;8.642;2024-01-30T08:06:21;22.70;45.30
16404;DHT22;8311;50.158;8.642;2024-01-30T08:09:14;22.70;45.30
16404;DHT22;8311;50.158;8.642;2024-01-30T08:12:07;22.60;45.40
16404;DHT22;8311;50.158;8.642;2024-01-30T08:15:01;22.60;45.60
16404;DHT22;8311;50.158;8.642;2024-01-30T08:17:54;22.60;45.60
16404;DHT22;8311;50.158;8.642;2024-01-30T08:20:49;22.60;45.70
16404;DHT22;8311;50.158;8.642;2024-01-30T08:27:28;22.50;45.60
16404;DHT22;8311;50.158;8.642;2024-01-30T08:30:21;22.50;46.30
16404;DHT22;8311;50.158;8.642;2024-01-30T08:33:15;22.50;45.80
16404;DHT22;8311;50.158;8.642;2024-01-30T08:36:09;22.50;45.80
16404;DHT22;8311;50.158;8.642;2024-01-30T08:39:02;22.60;46.40
16404;DHT22;8311;50.158;8.642;2024-01-30T08:41:57;22.60;46.70
16404;DHT22;8311;50.158;8.642;2024-01-30T08:44:52;22.60;46.80
16404;DHT22;8311;50.158;8.642;2024-01-30T08:47:45;22.60;47.10
16404;DHT22;8311;50.158;8.642;2024-01-30T08:50:39;22.60;47.50
16404;DHT22;8311;50.158;8.642;2024-01-30T08:53:32;22.60;47.50
16404;DHT22;8311;50.158;8.642;2024-01-30T08:56:25;22.60;47.70
16404;DHT22;8311;50.158;8.642;2024-01-30T08:59:18;22.60;47.80
16404;DHT22;8311;50.158;8.642;2024-01-30T09:02:13;22.60;48.00
16404;DHT22;8311;50.158;8.642;2024-01-30T09:05:08;22.60;48.20
16404;DHT22;8311;50.158;8.642;2024-01-30T09:11:45;22.50;48.40
16404;DHT22;8311;50.158;8.642;2024-01-30T09:14:39;22.50;48.50
16404;DHT22;8311;50.158;8.642;2024-01-30T09:17:35;22.50;48.60
16404;DHT22;8311;50.158;8.642;2024-01-30T09:20:28;22.50;48.80
16404;DHT22;8311;50.158;8.642;2024-01-30T09:23:27;22.50;49.00
16404;DHT22;8311;50.158;8.642;2024-01-30T09:26:20;22.50;48.90
16404;DHT22;8311;50.158;8.642;2024-01-30T09:29:17;22.50;49.10
16404;DHT22;8311;50.158;8.642;2024-01-30T09:32:11;22.50;49.80
16404;DHT22;8311;50.158;8.642;2024-01-30T09:35:06;22.50;49.30
16404;DHT22;8311;50.158;8.642;2024-01-30T09:41:48;22.50;49.40
16404;DHT22;8311;50.158;8.642;2024-01-30T09:44:43;22.40;49.40
16404;DHT22;8311;50.158;8.642;2024-01-30T09:47:40;22.40;49.50
16404;DHT22;8311;50.158;8.642;2024-01-30T09:50:35;22.40;48.60
16404;DHT22;8311;50.158;8.642;2024-01-30T09:53:29;22.40;47.80
16404;DHT22;8311;50.158;8.642;2024-01-30T09:56:23;22.40;47.60
16404;DHT22;8311;50.158;8.642;2024-01-30T09:59:16;22.40;46.80
16404;DHT22;8311;50.158;8.642;2024-01-30T10:02:08;22.30;46.70
16404;DHT22;8311;50.158;8.642;2024-01-30T10:05:03;22.30;46.70
16404;DHT22;8311;50.158;8.642;2024-01-30T10:07:58;22.30;46.70
16404;DHT22;8311;50.158;8.642;2024-01-30T10:10:51;22.30;46.70
16404;DHT22;8311;50.158;8.642;2024-01-30T10:13:44;22.30;46.70
16404;DHT22;8311;50.158;8.642;2024-01-30T10:20:25;22.30;46.50
16404;DHT22;8311;50.158;8.642;2024-01-30T10:23:20;22.30;46.40
16404;DHT22;8311;50.158;8.642;2024-01-30T10:26:12;22.30;46.40
16404;DHT22;8311;50.158;8.642;2024-01-30T10:29:06;22.30;46.40
16404;DHT22;8311;50.158;8.642;2024-01-30T10:32:00;22.20;46.30
16404;DHT22;8311;50.158;8.642;2024-01-30T10:34:54;22.20;46.80
16404;DHT22;8311;50.158;8.642;2024-01-30T10:41:41;22.20;47.20
16404;DHT22;8311;50.158;8.642;2024-01-30T10:44:48;22.10;47.00
16404;DHT22;8311;50.158;8.642;2024-01-30T10:47:49;22.10;46.70
16404;DHT22;8311;50.158;8.642;2024-01-30T10:50:43;22.10;46.70
16404;DHT22;8311;50.158;8.642;2024-01-30T10:53:49;22.10;46.60
16404;DHT22;8311;50.158;8.642;2024-01-30T10:56:44;22.10;46.70
16404;DHT22;8311;50.158;8.642;2024-01-30T10:59:38;22.00;46.70
16404;DHT22;8311;50.158;8.642;2024-01-30T11:02:32;22.00;46.60
16404;DHT22;8311;50.158;8.642;2024-01-30T11:05:27;22.00;46.70
16404;DHT22;8311;50.158;8.642;2024-01-30T11:08:25;22.00;45.60
16404;DHT22;8311;50.158;8.642;2024-01-30T11:11:49;22.00;46.10
16404;DHT22;8311;50.158;8.642;2024-01-30T11:14:43;22.00;46.10
16404;DHT22;8311;50.158;8.642;2024-01-30T11:17:41;22.00;46.40
16404;DHT22;8311;50.158;8.642;2024-01-30T11:20:35;22.00;46.20
16404;DHT22;8311;50.158;8.642;2024-01-30T11:23:30;22.00;46.10
16404;DHT22;8311;50.158;8.642;2024-01-30T11:26:27;22.00;46.20
16404;DHT22;8311;50.158;8.642;2024-01-30T11:29:24;22.00;45.60
16404;DHT22;8311;50.158;8.642;2024-01-30T11:32:22;22.00;45.70
16404;DHT22;8311;50.158;8.642;2024-01-30T11:35:16;22.00;46.10
16404;DHT22;8311;50.158;8.642;2024-01-30T11:38:12;22.00;46.10
16404;DHT22;8311;50.158;8.642;2024-01-30T11:41:05;21.90;46.10
16404;DHT22;8311;50.158;8.642;2024-01-30T11:43:59;21.90;46.00
16404;DHT22;8311;50.158;8.642;2024-01-30T11:46:53;21.90;45.70
16404;DHT22;8311;50.158;8.642;2024-01-30T11:49:46;21.90;45.70
16404;DHT22;8311;50.158;8.642;2024-01-30T11:52:38;21.90;45.00
16404;DHT22;8311;50.158;8.642;2024-01-30T11:59:15;21.90;45.20
16404;DHT22;8311;50.158;8.642;2024-01-30T12:02:15;21.90;45.00
16404;DHT22;8311;50.158;8.642;2024-01-30T12:05:09;21.90;44.80
16404;DHT22;8311;50.158;8.642;2024-01-30T12:08:02;21.90;45.00
16404;DHT22;8311;50.158;8.642;2024-01-30T12:10:56;21.90;44.80
16404;DHT22;8311;50.158;8.642;2024-01-30T12:13:51;21.90;45.00
16404;DHT22;8311;50.158;8.642;2024-01-30T12:16:48;21.90;44.80
16404;DHT22;8311;50.158;8.642;2024-01-30T12:19:44;21.90;45.50
16404;DHT22;8311;50.158;8.642;2024-01-30T12:22:39;21.90;44.80
16404;DHT22;8311;50.158;8.642;2024-01-30T12:25:33;21.90;45.10
16404;DHT22;8311;50.158;8.642;2024-01-30T12:28:26;21.90;44.90
16404;DHT22;8311;50.158;8.642;2024-01-30T12:31:25;21.90;45.00
16404;DHT22;8311;50.158;8.642;2024-01-30T12:34:19;21.80;45.10
16404;DHT22;8311;50.158;8.642;2024-01-30T12:37:14;21.90;45.10
16404;DHT22;8311;50.158;8.642;2024-01-30T12:40:11;21.80;45.00
16404;DHT22;8311;50.158;8.642;2024-01-30T12:43:07;21.80;45.00
16404;DHT22;8311;50.158;8.642;2024-01-30T12:46:00;21.80;45.00
16404;DHT22;8311;50.158;8.642;2024-01-30T12:48:54;21.80;45.10
16404;DHT22;8311;50.158;8.642;2024-01-30T12:51:48;21.80;45.00
16404;DHT22;8311;50.158;8.642;2024-01-30T12:54:42;21.80;44.80
16404;DHT22;8311;50.158;8.642;2024-01-30T13:01:20;21.80;44.80
16404;DHT22;8311;50.158;8.642;2024-01-30T13:04:15;21.80;44.90
16404;DHT22;8311;50.158;8.642;2024-01-30T13:07:09;21.80;45.10
16404;DHT22;8311;50.158;8.642;2024-01-30T13:10:05;21.80;44.90
16404;DHT22;8311;50.158;8.642;2024-01-30T13:12:59;21.80;44.80
16404;DHT22;8311;50.158;8.642;2024-01-30T13:15:52;21.80;44.90
16404;DHT22;8311;50.158;8.642;2024-01-30T13:18:45;21.80;44.80
16404;DHT22;8311;50.158;8.642;2024-01-30T13:21:38;21.80;44.80
16404;DHT22;8311;50.158;8.642;2024-01-30T13:24:31;21.80;44.90
16404;DHT22;8311;50.158;8.642;2024-01-30T13:27:25;21.80;44.80
16404;DHT22;8311;50.158;8.642;2024-01-30T13:34:02;21.80;45.10
16404;DHT22;8311;50.158;8.642;2024-01-30T13:37:00;21.70;45.10
16404;DHT22;8311;50.158;8.642;2024-01-30T13:39:53;21.70;45.00
16404;DHT22;8311;50.158;8.642;2024-01-30T13:42:47;21.70;45.20
16404;DHT22;8311;50.158;8.642;2024-01-30T13:45:41;21.70;45.00
16404;DHT22;8311;50.158;8.642;2024-01-30T13:48:35;21.70;45.10
16404;DHT22;8311;50.158;8.642;2024-01-30T13:51:28;21.70;45.80
16404;DHT22;8311;50.158;8.642;2024-01-30T13:54:21;21.70;45.40
16404;DHT22;8311;50.158;8.642;2024-01-30T14:00:59;21.70;45.20
16404;DHT22;8311;50.158;8.642;2024-01-30T14:03:52;21.70;45.80
16404;DHT22;8311;50.158;8.642;2024-01-30T14:06:46;21.60;45.80
16404;DHT22;8311;50.158;8.642;2024-01-30T14:09:51;21.70;45.70
16404;DHT22;8311;50.158;8.642;2024-01-30T14:12:45;21.60;45.80
16404;DHT22;8311;50.158;8.642;2024-01-30T14:15:40;21.60;45.90
16404;DHT22;8311;50.158;8.642;2024-01-30T14:18:34;21.60;45.90
16404;DHT22;8311;50.158;8.642;2024-01-30T14:21:28;21.60;45.70
16404;DHT22;8311;50.158;8.642;2024-01-30T14:24:47;21.60;45.70
16404;DHT22;8311;50.158;8.642;2024-01-30T14:27:40;21.60;45.70
16404;DHT22;8311;50.158;8.642;2024-01-30T14:30:34;21.60;45.70
16404;DHT22;8311;50.158;8.642;2024-01-30T14:33:27;21.60;45.70
16404;DHT22;8311;50.158;8.642;2024-01-30T14:36:26;21.60;45.70
16404;DHT22;8311;50.158;8.642;2024-01-30T14:39:20;21.50;45.70
16404;DHT22;8311;50.158;8.642;2024-01-30T14:42:13;21.50;45.60
16404;DHT22;8311;50.158;8.642;2024-01-30T14:45:07;21.50;45.50
16404;DHT22;8311;50.158;8.642;2024-01-30T14:48:01;21.50;45.50
16404;DHT22;8311;50.158;8.642;2024-01-30T14:50:54;21.50;45.30
16404;DHT22;8311;50.158;8.642;2024-01-30T14:53:48;21.50;45.40
16404;DHT22;8311;50.158;8.642;2024-01-30T14:56:42;21.50;45.60
16404;DHT22;8311;50.158;8.642;2024-01-30T14:59:35;21.50;45.20
16404;DHT22;8311;50.158;8.642;2024-01-30T15:02:28;21.50;45.40
16404;DHT22;8311;50.158;8.642;2024-01-30T15:09:07;21.40;45.20
16404;DHT22;8311;50.158;8.642;2024-01-30T15:12:01;21.40;45.20
16404;DHT22;8311;50.158;8.642;2024-01-30T15:14:54;21.40;45.10
16404;DHT22;8311;50.158;8.642;2024-01-30T15:17:47;21.40;45.20
16404;DHT22;8311;50.158;8.642;2024-01-30T15:20:40;21.40;45.10
16404;DHT22;8311;50.158;8.642;2024-01-30T15:23:33;21.40;45.10
16404;DHT22;8311;50.158;8.642;2024-01-30T15:26:27;21.40;45.30
16404;DHT22;8311;50.158;8.642;2024-01-30T15:29:20;21.40;45.30
16404;DHT22;8311;50.158;8.642;2024-01-30T15:32:14;21.40;45.60
16404;DHT22;8311;50.158;8.642;2024-01-30T15:35:07;21.40;46.00
16404;DHT22;8311;50.158;8.642;2024-01-30T15:38:00;21.40;45.60
16404;DHT22;8311;50.158;8.642;2024-01-30T15:40:54;21.40;45.20
16404;DHT22;8311;50.158;8.642;2024-01-30T15:43:49;21.40;45.80
16404;DHT22;8311;50.158;8.642;2024-01-30T15:46:43;21.40;46.10
16404;DHT22;8311;50.158;8.642;2024-01-30T15:49:36;21.40;46.50
16404;DHT22;8311;50.158;8.642;2024-01-30T15:52:30;21.40;46.50
16404;DHT22;8311;50.158;8.642;2024-01-30T15:59:08;21.40;45.50
16404;DHT22;8311;50.158;8.642;2024-01-30T16:02:02;21.40;45.30
16404;DHT22;8311;50.158;8.642;2024-01-30T16:04:55;21.40;45.50
16404;DHT22;8311;50.158;8.642;2024-01-30T16:07:48;21.40;45.50
16404;DHT22;8311;50.158;8.642;2024-01-30T16:10:43;21.30;45.20
16404;DHT22;8311;50.158;8.642;2024-01-30T16:13:36;21.30;45.20
16404;DHT22;8311;50.158;8.642;2024-01-30T16:16:31;21.30;45.20
16404;DHT22;8311;50.158;8.642;2024-01-30T16:19:25;21.30;45.00
16404;DHT22;8311;50.158;8.642;2024-01-30T16:22:18;21.30;45.10
16404;DHT22;8311;50.158;8.642;2024-01-30T16:25:12;21.30;45.10
16404;DHT22;8311;50.158;8.642;2024-01-30T16:28:09;21.30;45.60
16404;DHT22;8311;50.158;8.642;2024-01-30T16:31:03;21.30;45.00
16404;DHT22;8311;50.158;8.642;2024-01-30T16:33:57;21.30;45.00
16404;DHT22;8311;50.158;8.642;2024-01-30T16:40:36;21.30;45.10
16404;DHT22;8311;50.158;8.642;2024-01-30T16:43:29;21.20;45.00
16404;DHT22;8311;50.158;8.642;2024-01-30T16:46:22;21.30;45.00
16404;DHT22;8311;50.158;8.642;2024-01-30T16:49:16;21.20;44.90
16404;DHT22;8311;50.158;8.642;2024-01-30T16:52:09;21.30;45.10
16404;DHT22;8311;50.158;8.642;2024-01-30T16:55:02;21.20;44.90
16404;DHT22;8311;50.158;8.642;2024-01-30T16:57:56;21.20;45.60
16404;DHT22;8311;50.158;8.642;2024-01-30T17:00:50;21.20;45.00
16404;DHT22;8311;50.158;8.642;2024-01-30T17:03:43;21.20;45.00
16404;DHT22;8311;50.158;8.642;2024-01-30T17:06:37;21.20;44.90
16404;DHT22;8311;50.158;8.642;2024-01-30T17:09:30;21.20;45.00
16404;DHT22;8311;50.158;8.642;2024-01-30T17:12:24;21.20;45.00
16404;DHT22;8311;50.158;8.642;2024-01-30T17:15:17;21.20;45.00
16404;DHT22;8311;50.158;8.642;2024-01-30T17:18:11;21.20;44.90
16404;DHT22;8311;50.158;8.642;2024-01-30T17:21:05;21.20;44.90
16404;DHT22;8311;50.158;8.642;2024-01-30T17:23:59;21.20;44.90
16404;DHT22;8311;50.158;8.642;2024-01-30T17:26:53;21.20;44.90
16404;DHT22;8311;50.158;8.642;2024-01-30T17:29:47;21.20;45.00
16404;DHT22;8311;50.158;8.642;2024-01-30T17:32:40;21.10;44.90
16404;DHT22;8311;50.158;8.642;2024-01-30T17:35:34;21.20;45.00
16404;DHT22;8311;50.158;8.642;2024-01-30T17:38:27;21.20;44.90
16404;DHT22;8311;50.158;8.642;2024-01-30T17:41:22;21.20;45.00
16404;DHT22;8311;50.158;8.642;2024-01-30T17:44:16;21.20;44.90
16404;DHT22;8311;50.158;8.642;2024-01-30T17:47:10;21.10;44.80
16404;DHT22;8311;50.158;8.642;2024-01-30T17:50:04;21.10;44.80
16404;DHT22;8311;50.158;8.642;2024-01-30T17:52:57;21.10;44.90
16404;DHT22;8311;50.158;8.642;2024-01-30T17:59:38;21.10;44.90
16404;DHT22;8311;50.158;8.642;2024-01-30T18:02:31;21.10;44.90
16404;DHT22;8311;50.158;8.642;2024-01-30T18:05:24;21.10;44.80
16404;DHT22;8311;50.158;8.642;2024-01-30T18:08:17;21.10;44.80
16404;DHT22;8311;50.158;8.642;2024-01-30T18:11:10;21.10;44.80
16404;DHT22;8311;50.158;8.642;2024-01-30T18:14:04;21.10;44.90
16404;DHT22;8311;50.158;8.642;2024-01-30T18:16:58;21.10;44.90
16404;DHT22;8311;50.158;8.642;2024-01-30T18:19:52;21.10;45.00
16404;DHT22;8311;50.158;8.642;2024-01-30T18:22:45;21.10;44.90
16404;DHT22;8311;50.158;8.642;2024-01-30T18:25:38;21.10;45.00
16404;DHT22;8311;50.158;8.642;2024-01-30T18:28:31;21.10;44.90
16404;DHT22;8311;50.158;8.642;2024-01-30T18:31:25;21.10;45.00
16404;DHT22;8311;50.158;8.642;2024-01-30T18:34:20;21.00;44.90
16404;DHT22;8311;50.158;8.642;2024-01-30T18:37:13;21.10;44.90
16404;DHT22;8311;50.158;8.642;2024-01-30T18:40:07;21.00;44.90
16404;DHT22;8311;50.158;8.642;2024-01-30T18:43:00;21.00;44.90
16404;DHT22;8311;50.158;8.642;2024-01-30T18:45:56;21.00;44.90
16404;DHT22;8311;50.158;8.642;2024-01-30T18:48:49;21.00;44.80
16404;DHT22;8311;50.158;8.642;2024-01-30T18:51:47;21.00;45.00
16404;DHT22;8311;50.158;8.642;2024-01-30T18:54:41;21.00;44.90
16404;DHT22;8311;50.158;8.642;2024-01-30T18:57:34;21.00;44.90
16404;DHT22;8311;50.158;8.642;2024-01-30T19:00:30;21.00;44.90
16404;DHT22;8311;50.158;8.642;2024-01-30T19:03:23;21.00;44.90
16404;DHT22;8311;50.158;8.642;2024-01-30T19:06:17;21.00;45.00
16404;DHT22;8311;50.158;8.642;2024-01-30T19:09:12;21.00;44.90
16404;DHT22;8311;50.158;8.642;2024-01-30T19:12:06;21.00;45.00
16404;DHT22;8311;50.158;8.642;2024-01-30T19:14:59;21.00;45.00
16404;DHT22;8311;50.158;8.642;2024-01-30T19:17:53;21.00;45.00
16404;DHT22;8311;50.158;8.642;2024-01-30T19:24:31;20.70;42.40
16404;DHT22;8311;50.158;8.642;2024-01-30T19:27:25;20.80;43.90
16404;DHT22;8311;50.158;8.642;2024-01-30T19:30:19;20.80;44.50
16404;DHT22;8311;50.158;8.642;2024-01-30T19:33:12;20.80;43.30
16404;DHT22;8311;50.158;8.642;2024-01-30T19:36:06;20.80;43.20
16404;DHT22;8311;50.158;8.642;2024-01-30T19:38:59;20.80;43.30
16404;DHT22;8311;50.158;8.642;2024-01-30T19:41:54;20.90;43.50
16404;DHT22;8311;50.158;8.642;2024-01-30T19:44:47;20.90;43.50
16404;DHT22;8311;50.158;8.642;2024-01-30T19:47:41;20.90;43.50
16404;DHT22;8311;50.158;8.642;2024-01-30T19:50:35;20.90;43.60
16404;DHT22;8311;50.158;8.642;2024-01-30T19:57:21;20.90;43.70
16404;DHT22;8311;50.158;8.642;2024-01-30T20:00:15;20.90;43.80
16404;DHT22;8311;50.158;8.642;2024-01-30T20:03:09;20.90;43.90